Sea Cloud II — 9HUE6 — position and weather

sailwx.info

Track history (hours):
 
Tides and Currents Weather Stations Pressure Air Temp Water Temp Dewpoint Dewpoint Depression Visibility Wind Speed Wind Dir Waves Ship Positions

Sea Cloud II

Ship's website: http://www.seacloud.com/en/the-ships/sea-cloud-ii.html

Last reported at 2016-Nov-22 19:29 UTC. Time now 2016-Dec-02 18:05 UTC.
Position N 27°53' W 015°21'.
Warning: this ship's position is 9 days out of date.

Length 117 m; draft 6 m.

Type: Passenger vessel. MMSI: 248953000.

Date/timePositionNaut miles runAvg speedWind from/ knotsBaromVisibWave heightAir tempDewpointWater temp
2016-Nov-22 19:29N 27°53' W 015°21'16 8.1
2016-Nov-22 17:33N 28°08' W 015°25'0 0.0
2016-Nov-22 16:33N 28°08' W 015°25'0 0.0
2016-Nov-22 15:33N 28°08' W 015°25'0 0.0
2016-Nov-22 14:33N 28°08' W 015°25'0 0.0
2016-Nov-22 13:33N 28°08' W 015°25'0 0.0
2016-Nov-22 10:33N 28°08' W 015°25'0 0.0
2016-Nov-22 09:33N 28°08' W 015°25'0 0.0
2016-Nov-22 08:33N 28°08' W 015°25'0 0.2
2016-Nov-22 07:33N 28°08' W 015°25'11 5.5
2016-Nov-22 05:33N 27°59' W 015°18'7 6.5
2016-Nov-22 04:33N 27°53' W 015°20'46 6.6
2016-Nov-21 21:33N 27°48' W 016°11'  
2016-Nov-15 07:12N 27°51' W 016°28'5 7.5
2016-Nov-15 06:31N 27°50' W 016°22'5 7.1
2016-Nov-15 05:48N 27°48' W 016°17'17 7.6
2016-Nov-15 03:31N 27°43' W 015°58'36 9.4
2016-Nov-14 23:38N 27°55' W 015°19'14 3.5
2016-Nov-14 19:31N 28°08' W 015°25'0 0.0
2016-Nov-14 17:31N 28°08' W 015°25'0 0.0
2016-Nov-14 16:31N 28°08' W 015°25'0 0.0
2016-Nov-14 15:19N 28°08' W 015°25'0 0.0
2016-Nov-14 11:25N 28°08' W 015°25'0 0.0
2016-Nov-14 08:25N 28°08' W 015°25'0 0.0
2016-Nov-14 05:28N 28°08' W 015°25'0 0.0
2016-Nov-14 00:19N 28°08' W 015°25'0 0.0
2016-Nov-13 23:31N 28°08' W 015°25'0 0.0
2016-Nov-13 22:31N 28°08' W 015°25'0 0.0
2016-Nov-13 19:25N 28°08' W 015°25'0 0.0
2016-Nov-13 18:25N 28°08' W 015°25'0 0.0
2016-Nov-13 17:28N 28°08' W 015°25'0 0.0
2016-Nov-13 15:25N 28°08' W 015°25'0 0.0
2016-Nov-13 13:31N 28°08' W 015°25'0 0.0
2016-Nov-13 10:31N 28°08' W 015°25'0 0.0
2016-Nov-13 08:31N 28°08' W 015°25'0 0.0
2016-Nov-13 05:19N 28°08' W 015°25'0 0.0
2016-Nov-13 03:25N 28°08' W 015°25'0 0.0
2016-Nov-12 23:28N 28°08' W 015°25'0 0.0
2016-Nov-12 21:31N 28°08' W 015°25'0 0.0
2016-Nov-12 19:32N 28°08' W 015°25'  
Track history (hours):
 
Tides and Currents Weather Stations Pressure Air Temp Water Temp Dewpoint Dewpoint Depression Visibility Wind Speed Wind Dir Waves Ship Positions

Sea Cloud II

Ship's website: http://www.seacloud.com/en/the-ships/sea-cloud-ii.html

Last reported at 2016-Nov-22 19:29 UTC. Time now 2016-Dec-02 18:05 UTC.
Position N 27°53' W 015°21'.
Warning: this ship's position is 9 days out of date.

Length 117 m; draft 6 m.

Type: Passenger vessel. MMSI: 248953000.

Date/timePositionNaut miles runAvg speedWind from/ knotsBaromVisibWave heightAir tempDewpointWater temp
2016-Nov-22 19:29N 27°53' W 015°21'16 8.1
2016-Nov-22 17:33N 28°08' W 015°25'0 0.0
2016-Nov-22 16:33N 28°08' W 015°25'0 0.0
2016-Nov-22 15:33N 28°08' W 015°25'0 0.0
2016-Nov-22 14:33N 28°08' W 015°25'0 0.0
2016-Nov-22 13:33N 28°08' W 015°25'0 0.0
2016-Nov-22 10:33N 28°08' W 015°25'0 0.0
2016-Nov-22 09:33N 28°08' W 015°25'0 0.0
2016-Nov-22 08:33N 28°08' W 015°25'0 0.2
2016-Nov-22 07:33N 28°08' W 015°25'11 5.5
2016-Nov-22 05:33N 27°59' W 015°18'7 6.5
2016-Nov-22 04:33N 27°53' W 015°20'46 6.6
2016-Nov-21 21:33N 27°48' W 016°11'  
2016-Nov-15 07:12N 27°51' W 016°28'5 7.5
2016-Nov-15 06:31N 27°50' W 016°22'5 7.1
2016-Nov-15 05:48N 27°48' W 016°17'17 7.6
2016-Nov-15 03:31N 27°43' W 015°58'36 9.4
2016-Nov-14 23:38N 27°55' W 015°19'14 3.5
2016-Nov-14 19:31N 28°08' W 015°25'0 0.0
2016-Nov-14 17:31N 28°08' W 015°25'0 0.0
2016-Nov-14 16:31N 28°08' W 015°25'0 0.0
2016-Nov-14 15:19N 28°08' W 015°25'0 0.0
2016-Nov-14 11:25N 28°08' W 015°25'0 0.0
2016-Nov-14 08:25N 28°08' W 015°25'0 0.0
2016-Nov-14 05:28N 28°08' W 015°25'0 0.0
2016-Nov-14 00:19N 28°08' W 015°25'0 0.0
2016-Nov-13 23:31N 28°08' W 015°25'0 0.0
2016-Nov-13 22:31N 28°08' W 015°25'0 0.0
2016-Nov-13 19:25N 28°08' W 015°25'0 0.0
2016-Nov-13 18:25N 28°08' W 015°25'0 0.0
2016-Nov-13 17:28N 28°08' W 015°25'0 0.0
2016-Nov-13 15:25N 28°08' W 015°25'0 0.0
2016-Nov-13 13:31N 28°08' W 015°25'0 0.0
2016-Nov-13 10:31N 28°08' W 015°25'0 0.0
2016-Nov-13 08:31N 28°08' W 015°25'0 0.0
2016-Nov-13 05:19N 28°08' W 015°25'0 0.0
2016-Nov-13 03:25N 28°08' W 015°25'0 0.0
2016-Nov-12 23:28N 28°08' W 015°25'0 0.0
2016-Nov-12 21:31N 28°08' W 015°25'0 0.0
2016-Nov-12 19:32N 28°08' W 015°25'  

Dump ship's entire track history